sensor_id;sensor_type;location;lat;lon;timestamp;P1;durP1;ratioP1;P2;durP2;ratioP2
1300;SDS011;59099;48.806;9.160;2022-09-06T00:00:32;5.33;;;4.83;;
1300;SDS011;59099;48.806;9.160;2022-09-06T00:02:59;4.70;;;4.00;;
1300;SDS011;59099;48.806;9.160;2022-09-06T00:05:25;5.37;;;4.27;;
1300;SDS011;59099;48.806;9.160;2022-09-06T00:07:54;6.00;;;4.80;;
1300;SDS011;59099;48.806;9.160;2022-09-06T00:10:23;5.17;;;4.43;;
1300;SDS011;59099;48.806;9.160;2022-09-06T00:12:49;5.07;;;4.70;;
1300;SDS011;59099;48.806;9.160;2022-09-06T00:15:15;5.50;;;5.00;;
1300;SDS011;59099;48.806;9.160;2022-09-06T00:17:41;5.67;;;4.23;;
1300;SDS011;59099;48.806;9.160;2022-09-06T00:20:09;8.23;;;5.03;;
1300;SDS011;59099;48.806;9.160;2022-09-06T00:22:35;4.03;;;3.73;;
1300;SDS011;59099;48.806;9.160;2022-09-06T00:25:02;5.40;;;4.43;;
1300;SDS011;59099;48.806;9.160;2022-09-06T00:27:30;6.27;;;5.23;;
1300;SDS011;59099;48.806;9.160;2022-09-06T00:29:57;4.60;;;4.20;;
1300;SDS011;59099;48.806;9.160;2022-09-06T00:32:23;5.70;;;4.57;;
1300;SDS011;59099;48.806;9.160;2022-09-06T00:34:49;5.07;;;4.57;;
1300;SDS011;59099;48.806;9.160;2022-09-06T00:37:15;4.57;;;4.17;;
1300;SDS011;59099;48.806;9.160;2022-09-06T00:39:41;5.10;;;4.70;;
1300;SDS011;59099;48.806;9.160;2022-09-06T00:42:07;4.10;;;3.80;;
1300;SDS011;59099;48.806;9.160;2022-09-06T00:44:34;5.77;;;5.03;;
1300;SDS011;59099;48.806;9.160;2022-09-06T00:47:00;4.37;;;4.07;;
1300;SDS011;59099;48.806;9.160;2022-09-06T00:49:27;4.43;;;4.07;;
1300;SDS011;59099;48.806;9.160;2022-09-06T00:52:02;4.80;;;4.50;;
1300;SDS011;59099;48.806;9.160;2022-09-06T00:54:31;5.53;;;4.07;;
1300;SDS011;59099;48.806;9.160;2022-09-06T00:56:58;4.63;;;4.20;;
1300;SDS011;59099;48.806;9.160;2022-09-06T00:59:25;5.20;;;4.80;;
1300;SDS011;59099;48.806;9.160;2022-09-06T01:01:53;4.70;;;4.20;;
1300;SDS011;59099;48.806;9.160;2022-09-06T01:04:19;5.00;;;4.60;;
1300;SDS011;59099;48.806;9.160;2022-09-06T01:06:56;4.80;;;4.50;;
1300;SDS011;59099;48.806;9.160;2022-09-06T01:12:20;4.57;;;4.23;;
1300;SDS011;59099;48.806;9.160;2022-09-06T01:28:55;5.73;;;4.00;;
1300;SDS011;59099;48.806;9.160;2022-09-06T01:33:57;5.27;;;4.87;;
1300;SDS011;59099;48.806;9.160;2022-09-06T01:36:28;4.93;;;4.53;;
1300;SDS011;59099;48.806;9.160;2022-09-06T01:39:04;5.77;;;4.60;;
1300;SDS011;59099;48.806;9.160;2022-09-06T01:41:30;5.03;;;4.60;;
1300;SDS011;59099;48.806;9.160;2022-09-06T01:43:56;4.23;;;3.93;;
1300;SDS011;59099;48.806;9.160;2022-09-06T02:00:24;4.50;;;4.20;;
1300;SDS011;59099;48.806;9.160;2022-09-06T02:03:12;5.10;;;4.70;;
1300;SDS011;59099;48.806;9.160;2022-09-06T02:06:03;4.70;;;4.27;;
1300;SDS011;59099;48.806;9.160;2022-09-06T02:08:52;5.00;;;4.50;;
1300;SDS011;59099;48.806;9.160;2022-09-06T02:11:25;5.30;;;4.87;;
1300;SDS011;59099;48.806;9.160;2022-09-06T02:13:54;5.37;;;4.87;;
1300;SDS011;59099;48.806;9.160;2022-09-06T02:16:26;7.53;;;5.20;;
1300;SDS011;59099;48.806;9.160;2022-09-06T02:19:05;5.50;;;5.10;;
1300;SDS011;59099;48.806;9.160;2022-09-06T02:21:39;4.90;;;4.50;;
1300;SDS011;59099;48.806;9.160;2022-09-06T02:24:10;5.40;;;4.93;;
1300;SDS011;59099;48.806;9.160;2022-09-06T02:26:42;5.20;;;4.80;;
1300;SDS011;59099;48.806;9.160;2022-09-06T02:29:10;4.90;;;4.03;;
1300;SDS011;59099;48.806;9.160;2022-09-06T02:31:48;4.50;;;4.07;;
1300;SDS011;59099;48.806;9.160;2022-09-06T02:34:19;6.20;;;5.00;;
1300;SDS011;59099;48.806;9.160;2022-09-06T02:36:45;4.70;;;4.30;;
1300;SDS011;59099;48.806;9.160;2022-09-06T02:39:11;6.40;;;4.20;;
1300;SDS011;59099;48.806;9.160;2022-09-06T02:41:39;7.50;;;4.43;;
1300;SDS011;59099;48.806;9.160;2022-09-06T02:44:06;4.77;;;4.47;;
1300;SDS011;59099;48.806;9.160;2022-09-06T02:46:32;4.83;;;4.43;;
1300;SDS011;59099;48.806;9.160;2022-09-06T02:48:58;4.67;;;4.20;;
1300;SDS011;59099;48.806;9.160;2022-09-06T02:51:23;5.30;;;4.80;;
1300;SDS011;59099;48.806;9.160;2022-09-06T02:53:49;5.67;;;5.17;;
1300;SDS011;59099;48.806;9.160;2022-09-06T02:56:15;6.47;;;5.73;;
1300;SDS011;59099;48.806;9.160;2022-09-06T02:58:41;6.50;;;5.90;;
1300;SDS011;59099;48.806;9.160;2022-09-06T03:01:07;10.93;;;7.47;;
1300;SDS011;59099;48.806;9.160;2022-09-06T03:03:33;6.07;;;5.50;;
1300;SDS011;59099;48.806;9.160;2022-09-06T03:05:59;6.10;;;5.60;;
1300;SDS011;59099;48.806;9.160;2022-09-06T03:08:24;7.23;;;5.63;;
1300;SDS011;59099;48.806;9.160;2022-09-06T03:10:54;6.60;;;5.50;;
1300;SDS011;59099;48.806;9.160;2022-09-06T03:13:20;6.33;;;5.73;;
1300;SDS011;59099;48.806;9.160;2022-09-06T03:15:51;5.97;;;5.40;;
1300;SDS011;59099;48.806;9.160;2022-09-06T03:18:17;6.00;;;5.27;;
1300;SDS011;59099;48.806;9.160;2022-09-06T03:20:43;6.77;;;5.87;;
1300;SDS011;59099;48.806;9.160;2022-09-06T03:23:09;6.97;;;6.30;;
1300;SDS011;59099;48.806;9.160;2022-09-06T03:25:35;6.90;;;6.30;;
1300;SDS011;59099;48.806;9.160;2022-09-06T03:28:01;6.53;;;5.60;;
1300;SDS011;59099;48.806;9.160;2022-09-06T03:30:27;7.10;;;6.40;;
1300;SDS011;59099;48.806;9.160;2022-09-06T03:32:53;8.40;;;5.90;;
1300;SDS011;59099;48.806;9.160;2022-09-06T03:35:19;7.17;;;6.60;;
1300;SDS011;59099;48.806;9.160;2022-09-06T03:37:44;6.97;;;6.27;;
1300;SDS011;59099;48.806;9.160;2022-09-06T03:40:10;6.37;;;5.87;;
1300;SDS011;59099;48.806;9.160;2022-09-06T03:42:36;6.70;;;6.10;;
1300;SDS011;59099;48.806;9.160;2022-09-06T03:45:02;6.93;;;6.20;;
1300;SDS011;59099;48.806;9.160;2022-09-06T03:47:29;6.70;;;6.10;;
1300;SDS011;59099;48.806;9.160;2022-09-06T03:49:55;10.40;;;6.80;;
1300;SDS011;59099;48.806;9.160;2022-09-06T03:52:21;7.00;;;6.40;;
1300;SDS011;59099;48.806;9.160;2022-09-06T03:54:47;6.70;;;6.07;;
1300;SDS011;59099;48.806;9.160;2022-09-06T03:57:13;7.60;;;6.90;;
1300;SDS011;59099;48.806;9.160;2022-09-06T03:59:38;7.10;;;6.50;;
1300;SDS011;59099;48.806;9.160;2022-09-06T04:02:04;8.70;;;7.17;;
1300;SDS011;59099;48.806;9.160;2022-09-06T04:04:30;8.53;;;6.40;;
1300;SDS011;59099;48.806;9.160;2022-09-06T04:06:56;7.50;;;6.90;;
1300;SDS011;59099;48.806;9.160;2022-09-06T04:09:22;7.47;;;6.77;;
1300;SDS011;59099;48.806;9.160;2022-09-06T04:11:48;6.70;;;6.03;;
1300;SDS011;59099;48.806;9.160;2022-09-06T04:14:13;6.90;;;6.30;;
1300;SDS011;59099;48.806;9.160;2022-09-06T04:16:39;7.40;;;6.70;;
1300;SDS011;59099;48.806;9.160;2022-09-06T04:19:05;6.70;;;6.07;;
1300;SDS011;59099;48.806;9.160;2022-09-06T04:21:31;8.53;;;7.27;;
1300;SDS011;59099;48.806;9.160;2022-09-06T04:23:57;6.40;;;5.80;;
1300;SDS011;59099;48.806;9.160;2022-09-06T04:26:23;9.93;;;7.10;;
1300;SDS011;59099;48.806;9.160;2022-09-06T04:28:49;7.60;;;7.00;;
1300;SDS011;59099;48.806;9.160;2022-09-06T04:31:17;7.10;;;6.50;;
1300;SDS011;59099;48.806;9.160;2022-09-06T04:33:43;7.53;;;6.83;;
1300;SDS011;59099;48.806;9.160;2022-09-06T04:36:09;7.27;;;6.50;;
1300;SDS011;59099;48.806;9.160;2022-09-06T04:38:36;7.90;;;7.20;;
1300;SDS011;59099;48.806;9.160;2022-09-06T04:41:04;6.80;;;6.17;;
1300;SDS011;59099;48.806;9.160;2022-09-06T04:43:30;7.80;;;7.07;;
1300;SDS011;59099;48.806;9.160;2022-09-06T04:46:01;8.17;;;7.30;;
1300;SDS011;59099;48.806;9.160;2022-09-06T04:48:28;6.93;;;6.23;;
1300;SDS011;59099;48.806;9.160;2022-09-06T04:50:54;8.07;;;6.50;;
1300;SDS011;59099;48.806;9.160;2022-09-06T04:53:19;8.00;;;6.90;;
1300;SDS011;59099;48.806;9.160;2022-09-06T04:55:45;8.17;;;7.40;;
1300;SDS011;59099;48.806;9.160;2022-09-06T04:58:11;7.93;;;7.27;;
1300;SDS011;59099;48.806;9.160;2022-09-06T05:00:37;8.00;;;7.20;;
1300;SDS011;59099;48.806;9.160;2022-09-06T05:03:03;8.00;;;7.20;;
1300;SDS011;59099;48.806;9.160;2022-09-06T05:05:29;8.77;;;7.97;;
1300;SDS011;59099;48.806;9.160;2022-09-06T05:07:55;11.23;;;8.57;;
1300;SDS011;59099;48.806;9.160;2022-09-06T05:10:21;9.13;;;7.73;;
1300;SDS011;59099;48.806;9.160;2022-09-06T05:12:48;7.90;;;7.10;;
1300;SDS011;59099;48.806;9.160;2022-09-06T05:15:16;7.73;;;7.03;;
1300;SDS011;59099;48.806;9.160;2022-09-06T05:17:42;9.47;;;7.53;;
1300;SDS011;59099;48.806;9.160;2022-09-06T05:20:08;8.50;;;7.70;;
1300;SDS011;59099;48.806;9.160;2022-09-06T05:22:35;8.53;;;7.70;;
1300;SDS011;59099;48.806;9.160;2022-09-06T05:25:01;9.10;;;8.30;;
1300;SDS011;59099;48.806;9.160;2022-09-06T05:27:27;7.77;;;7.03;;
1300;SDS011;59099;48.806;9.160;2022-09-06T05:29:53;7.37;;;6.77;;
1300;SDS011;59099;48.806;9.160;2022-09-06T05:32:18;7.90;;;6.70;;
1300;SDS011;59099;48.806;9.160;2022-09-06T05:34:44;7.60;;;7.00;;
1300;SDS011;59099;48.806;9.160;2022-09-06T05:37:10;8.27;;;7.30;;
1300;SDS011;59099;48.806;9.160;2022-09-06T05:39:35;8.53;;;7.77;;
1300;SDS011;59099;48.806;9.160;2022-09-06T05:42:01;7.93;;;7.20;;
1300;SDS011;59099;48.806;9.160;2022-09-06T05:44:34;8.00;;;7.20;;
1300;SDS011;59099;48.806;9.160;2022-09-06T05:47:00;7.70;;;6.80;;
1300;SDS011;59099;48.806;9.160;2022-09-06T05:49:30;10.10;;;6.77;;
1300;SDS011;59099;48.806;9.160;2022-09-06T05:51:56;7.20;;;6.60;;
1300;SDS011;59099;48.806;9.160;2022-09-06T05:54:23;8.80;;;7.27;;
1300;SDS011;59099;48.806;9.160;2022-09-06T05:56:49;7.70;;;7.00;;
1300;SDS011;59099;48.806;9.160;2022-09-06T05:59:15;8.40;;;7.30;;
1300;SDS011;59099;48.806;9.160;2022-09-06T06:01:51;10.30;;;7.30;;
1300;SDS011;59099;48.806;9.160;2022-09-06T06:04:17;7.50;;;6.90;;
1300;SDS011;59099;48.806;9.160;2022-09-06T06:06:44;8.97;;;8.07;;
1300;SDS011;59099;48.806;9.160;2022-09-06T06:09:11;11.10;;;7.07;;
1300;SDS011;59099;48.806;9.160;2022-09-06T06:11:37;8.77;;;7.87;;
1300;SDS011;59099;48.806;9.160;2022-09-06T06:14:03;10.53;;;7.53;;
1300;SDS011;59099;48.806;9.160;2022-09-06T06:16:32;8.20;;;7.60;;
1300;SDS011;59099;48.806;9.160;2022-09-06T06:18:58;8.07;;;7.27;;
1300;SDS011;59099;48.806;9.160;2022-09-06T06:21:25;8.50;;;7.80;;
1300;SDS011;59099;48.806;9.160;2022-09-06T06:23:56;8.03;;;7.33;;
1300;SDS011;59099;48.806;9.160;2022-09-06T06:26:24;8.67;;;7.90;;
1300;SDS011;59099;48.806;9.160;2022-09-06T06:28:51;7.50;;;6.87;;
1300;SDS011;59099;48.806;9.160;2022-09-06T06:31:18;7.90;;;7.20;;
1300;SDS011;59099;48.806;9.160;2022-09-06T06:33:46;8.27;;;7.67;;
1300;SDS011;59099;48.806;9.160;2022-09-06T06:38:38;10.03;;;8.13;;
1300;SDS011;59099;48.806;9.160;2022-09-06T06:41:06;8.63;;;7.77;;
1300;SDS011;59099;48.806;9.160;2022-09-06T06:43:33;10.40;;;7.53;;
1300;SDS011;59099;48.806;9.160;2022-09-06T06:46:10;7.50;;;6.90;;
1300;SDS011;59099;48.806;9.160;2022-09-06T06:48:37;7.43;;;6.70;;
1300;SDS011;59099;48.806;9.160;2022-09-06T06:51:08;10.70;;;8.77;;
1300;SDS011;59099;48.806;9.160;2022-09-06T06:53:35;7.00;;;6.50;;
1300;SDS011;59099;48.806;9.160;2022-09-06T06:56:01;7.70;;;7.10;;
1300;SDS011;59099;48.806;9.160;2022-09-06T06:58:43;8.50;;;6.87;;
1300;SDS011;59099;48.806;9.160;2022-09-06T07:01:09;8.43;;;7.57;;
1300;SDS011;59099;48.806;9.160;2022-09-06T07:03:35;6.83;;;6.13;;
1300;SDS011;59099;48.806;9.160;2022-09-06T07:06:02;6.77;;;6.07;;
1300;SDS011;59099;48.806;9.160;2022-09-06T07:08:28;7.93;;;7.33;;
1300;SDS011;59099;48.806;9.160;2022-09-06T07:10:54;6.27;;;5.67;;
1300;SDS011;59099;48.806;9.160;2022-09-06T07:13:20;6.40;;;5.67;;
1300;SDS011;59099;48.806;9.160;2022-09-06T07:15:45;6.90;;;5.63;;
1300;SDS011;59099;48.806;9.160;2022-09-06T07:18:14;6.90;;;6.17;;
1300;SDS011;59099;48.806;9.160;2022-09-06T07:20:40;6.10;;;5.60;;
1300;SDS011;59099;48.806;9.160;2022-09-06T07:23:06;9.93;;;5.60;;
1300;SDS011;59099;48.806;9.160;2022-09-06T07:25:32;6.07;;;5.47;;
1300;SDS011;59099;48.806;9.160;2022-09-06T07:27:59;6.20;;;5.60;;
1300;SDS011;59099;48.806;9.160;2022-09-06T07:30:29;6.23;;;5.63;;
1300;SDS011;59099;48.806;9.160;2022-09-06T07:32:55;5.73;;;5.23;;
1300;SDS011;59099;48.806;9.160;2022-09-06T07:35:23;5.93;;;5.43;;
1300;SDS011;59099;48.806;9.160;2022-09-06T07:37:54;6.03;;;5.30;;
1300;SDS011;59099;48.806;9.160;2022-09-06T07:40:21;5.83;;;4.67;;
1300;SDS011;59099;48.806;9.160;2022-09-06T07:42:47;4.80;;;4.40;;
1300;SDS011;59099;48.806;9.160;2022-09-06T07:45:13;4.63;;;4.33;;
1300;SDS011;59099;48.806;9.160;2022-09-06T07:47:39;5.10;;;4.60;;
1300;SDS011;59099;48.806;9.160;2022-09-06T07:50:05;6.97;;;5.10;;
1300;SDS011;59099;48.806;9.160;2022-09-06T07:52:32;4.93;;;4.47;;
1300;SDS011;59099;48.806;9.160;2022-09-06T07:54:58;6.87;;;5.13;;
1300;SDS011;59099;48.806;9.160;2022-09-06T07:57:23;4.60;;;4.20;;
1300;SDS011;59099;48.806;9.160;2022-09-06T07:59:49;5.73;;;4.57;;
1300;SDS011;59099;48.806;9.160;2022-09-06T08:02:16;4.90;;;4.43;;
1300;SDS011;59099;48.806;9.160;2022-09-06T08:04:42;5.03;;;4.70;;
1300;SDS011;59099;48.806;9.160;2022-09-06T08:07:08;6.30;;;4.20;;
1300;SDS011;59099;48.806;9.160;2022-09-06T08:09:34;4.43;;;3.90;;
1300;SDS011;59099;48.806;9.160;2022-09-06T08:12:01;7.10;;;4.47;;
1300;SDS011;59099;48.806;9.160;2022-09-06T08:14:31;4.90;;;4.40;;
1300;SDS011;59099;48.806;9.160;2022-09-06T08:16:57;4.90;;;4.50;;
1300;SDS011;59099;48.806;9.160;2022-09-06T08:19:23;4.43;;;4.10;;
1300;SDS011;59099;48.806;9.160;2022-09-06T08:21:49;5.00;;;3.70;;
1300;SDS011;59099;48.806;9.160;2022-09-06T08:24:21;7.23;;;4.10;;
1300;SDS011;59099;48.806;9.160;2022-09-06T08:26:46;4.43;;;4.13;;
1300;SDS011;59099;48.806;9.160;2022-09-06T08:29:12;4.30;;;3.90;;
1300;SDS011;59099;48.806;9.160;2022-09-06T08:31:39;6.57;;;4.50;;
1300;SDS011;59099;48.806;9.160;2022-09-06T08:34:07;5.23;;;4.07;;
1300;SDS011;59099;48.806;9.160;2022-09-06T08:36:33;4.37;;;3.97;;
1300;SDS011;59099;48.806;9.160;2022-09-06T08:39:00;7.13;;;4.40;;
1300;SDS011;59099;48.806;9.160;2022-09-06T08:41:30;5.50;;;4.10;;
1300;SDS011;59099;48.806;9.160;2022-09-06T08:46:58;4.77;;;4.30;;
1300;SDS011;59099;48.806;9.160;2022-09-06T08:49:29;4.10;;;3.70;;
1300;SDS011;59099;48.806;9.160;2022-09-06T08:59:44;6.10;;;3.70;;
1300;SDS011;59099;48.806;9.160;2022-09-06T09:02:17;6.00;;;3.60;;
1300;SDS011;59099;48.806;9.160;2022-09-06T09:04:46;5.83;;;3.67;;
1300;SDS011;59099;48.806;9.160;2022-09-06T09:10:28;4.47;;;4.17;;
1300;SDS011;59099;48.806;9.160;2022-09-06T09:12:56;4.23;;;3.83;;
1300;SDS011;59099;48.806;9.160;2022-09-06T09:15:24;4.57;;;4.17;;
1300;SDS011;59099;48.806;9.160;2022-09-06T09:17:50;4.93;;;3.90;;
1300;SDS011;59099;48.806;9.160;2022-09-06T09:20:17;4.87;;;3.60;;
1300;SDS011;59099;48.806;9.160;2022-09-06T09:22:44;5.63;;;3.73;;
1300;SDS011;59099;48.806;9.160;2022-09-06T09:25:12;4.87;;;3.90;;
1300;SDS011;59099;48.806;9.160;2022-09-06T09:27:45;5.20;;;3.90;;
1300;SDS011;59099;48.806;9.160;2022-09-06T09:30:12;4.00;;;3.70;;
1300;SDS011;59099;48.806;9.160;2022-09-06T09:32:39;8.27;;;3.70;;
1300;SDS011;59099;48.806;9.160;2022-09-06T09:40:50;6.63;;;4.20;;
1300;SDS011;59099;48.806;9.160;2022-09-06T09:43:18;4.97;;;3.67;;
1300;SDS011;59099;48.806;9.160;2022-09-06T09:45:56;9.17;;;4.00;;
1300;SDS011;59099;48.806;9.160;2022-09-06T09:48:31;7.10;;;4.00;;
1300;SDS011;59099;48.806;9.160;2022-09-06T09:50:58;6.27;;;3.63;;
1300;SDS011;59099;48.806;9.160;2022-09-06T09:53:57;5.90;;;4.30;;
1300;SDS011;59099;48.806;9.160;2022-09-06T09:56:29;7.83;;;3.87;;
1300;SDS011;59099;48.806;9.160;2022-09-06T09:59:00;4.47;;;3.43;;
1300;SDS011;59099;48.806;9.160;2022-09-06T10:01:28;8.17;;;3.67;;
1300;SDS011;59099;48.806;9.160;2022-09-06T10:04:02;7.10;;;3.67;;
1300;SDS011;59099;48.806;9.160;2022-09-06T10:06:30;4.80;;;3.10;;
1300;SDS011;59099;48.806;9.160;2022-09-06T10:08:56;5.23;;;3.50;;
1300;SDS011;59099;48.806;9.160;2022-09-06T10:11:39;6.83;;;3.40;;
1300;SDS011;59099;48.806;9.160;2022-09-06T10:14:22;6.57;;;3.30;;
1300;SDS011;59099;48.806;9.160;2022-09-06T10:17:03;3.83;;;2.87;;
1300;SDS011;59099;48.806;9.160;2022-09-06T10:19:39;4.57;;;2.70;;
1300;SDS011;59099;48.806;9.160;2022-09-06T10:22:28;6.10;;;3.13;;
1300;SDS011;59099;48.806;9.160;2022-09-06T10:30:23;5.10;;;3.00;;
1300;SDS011;59099;48.806;9.160;2022-09-06T10:33:03;4.43;;;3.30;;
1300;SDS011;59099;48.806;9.160;2022-09-06T10:35:39;5.00;;;2.83;;
1300;SDS011;59099;48.806;9.160;2022-09-06T10:38:19;2.40;;;2.20;;
1300;SDS011;59099;48.806;9.160;2022-09-06T10:46:47;3.07;;;2.77;;
1300;SDS011;59099;48.806;9.160;2022-09-06T10:49:19;3.80;;;2.73;;
1300;SDS011;59099;48.806;9.160;2022-09-06T10:54:16;3.00;;;2.77;;
1300;SDS011;59099;48.806;9.160;2022-09-06T10:57:02;4.57;;;2.87;;
1300;SDS011;59099;48.806;9.160;2022-09-06T10:59:44;4.37;;;3.17;;
1300;SDS011;59099;48.806;9.160;2022-09-06T11:07:49;5.93;;;3.40;;
1300;SDS011;59099;48.806;9.160;2022-09-06T11:10:25;6.10;;;3.33;;
1300;SDS011;59099;48.806;9.160;2022-09-06T11:15:46;7.50;;;3.13;;
1300;SDS011;59099;48.806;9.160;2022-09-06T11:23:51;3.37;;;3.07;;
1300;SDS011;59099;48.806;9.160;2022-09-06T11:29:07;5.03;;;3.33;;
1300;SDS011;59099;48.806;9.160;2022-09-06T11:36:57;8.73;;;3.73;;
1300;SDS011;59099;48.806;9.160;2022-09-06T11:39:47;4.17;;;3.33;;
1300;SDS011;59099;48.806;9.160;2022-09-06T11:52:49;4.43;;;2.90;;
1300;SDS011;59099;48.806;9.160;2022-09-06T11:55:47;3.73;;;2.63;;
1300;SDS011;59099;48.806;9.160;2022-09-06T12:00:41;4.00;;;3.40;;
1300;SDS011;59099;48.806;9.160;2022-09-06T12:03:08;3.80;;;3.37;;
1300;SDS011;59099;48.806;9.160;2022-09-06T12:06:12;3.80;;;3.50;;
1300;SDS011;59099;48.806;9.160;2022-09-06T12:08:39;4.27;;;3.90;;
1300;SDS011;59099;48.806;9.160;2022-09-06T12:14:05;7.77;;;3.80;;
1300;SDS011;59099;48.806;9.160;2022-09-06T12:29:58;5.43;;;4.40;;
1300;SDS011;59099;48.806;9.160;2022-09-06T12:32:45;5.20;;;4.20;;
1300;SDS011;59099;48.806;9.160;2022-09-06T12:35:21;7.10;;;4.90;;
1300;SDS011;59099;48.806;9.160;2022-09-06T12:37:49;5.57;;;4.90;;
1300;SDS011;59099;48.806;9.160;2022-09-06T12:40:24;5.93;;;4.10;;
1300;SDS011;59099;48.806;9.160;2022-09-06T12:42:54;5.43;;;4.37;;
1300;SDS011;59099;48.806;9.160;2022-09-06T12:45:21;4.20;;;3.90;;
1300;SDS011;59099;48.806;9.160;2022-09-06T12:47:48;5.73;;;4.13;;
1300;SDS011;59099;48.806;9.160;2022-09-06T12:52:46;5.27;;;3.57;;
1300;SDS011;59099;48.806;9.160;2022-09-06T12:55:21;4.47;;;3.70;;
1300;SDS011;59099;48.806;9.160;2022-09-06T12:57:51;4.57;;;4.27;;
1300;SDS011;59099;48.806;9.160;2022-09-06T13:00:18;4.27;;;3.93;;
1300;SDS011;59099;48.806;9.160;2022-09-06T13:02:57;4.97;;;4.57;;
1300;SDS011;59099;48.806;9.160;2022-09-06T13:05:32;5.07;;;4.70;;
1300;SDS011;59099;48.806;9.160;2022-09-06T13:08:02;6.53;;;5.03;;
1300;SDS011;59099;48.806;9.160;2022-09-06T13:10:28;7.60;;;5.30;;
1300;SDS011;59099;48.806;9.160;2022-09-06T13:13:32;6.17;;;5.20;;
1300;SDS011;59099;48.806;9.160;2022-09-06T13:16:37;9.70;;;5.80;;
1300;SDS011;59099;48.806;9.160;2022-09-06T13:19:16;7.47;;;5.20;;
1300;SDS011;59099;48.806;9.160;2022-09-06T13:22:36;15.27;;;6.50;;
1300;SDS011;59099;48.806;9.160;2022-09-06T13:25:23;8.60;;;6.70;;
1300;SDS011;59099;48.806;9.160;2022-09-06T13:27:53;8.90;;;6.50;;
1300;SDS011;59099;48.806;9.160;2022-09-06T13:30:40;11.43;;;6.33;;
1300;SDS011;59099;48.806;9.160;2022-09-06T13:33:19;6.47;;;5.87;;
1300;SDS011;59099;48.806;9.160;2022-09-06T13:38:40;6.57;;;6.00;;
1300;SDS011;59099;48.806;9.160;2022-09-06T13:44:05;10.43;;;6.67;;
1300;SDS011;59099;48.806;9.160;2022-09-06T13:46:43;6.00;;;5.40;;
1300;SDS011;59099;48.806;9.160;2022-09-06T13:49:10;7.33;;;6.30;;
1300;SDS011;59099;48.806;9.160;2022-09-06T13:51:37;7.03;;;6.10;;
1300;SDS011;59099;48.806;9.160;2022-09-06T13:54:14;6.20;;;5.70;;
1300;SDS011;59099;48.806;9.160;2022-09-06T13:56:43;7.70;;;5.70;;
1300;SDS011;59099;48.806;9.160;2022-09-06T13:59:10;6.27;;;5.77;;
1300;SDS011;59099;48.806;9.160;2022-09-06T14:01:43;7.47;;;5.63;;
1300;SDS011;59099;48.806;9.160;2022-09-06T14:04:12;6.27;;;5.70;;
1300;SDS011;59099;48.806;9.160;2022-09-06T14:06:44;8.33;;;5.87;;
1300;SDS011;59099;48.806;9.160;2022-09-06T14:09:10;7.70;;;6.80;;
1300;SDS011;59099;48.806;9.160;2022-09-06T14:11:36;6.00;;;5.40;;
1300;SDS011;59099;48.806;9.160;2022-09-06T14:14:03;5.90;;;5.30;;
1300;SDS011;59099;48.806;9.160;2022-09-06T14:16:29;7.20;;;5.70;;
1300;SDS011;59099;48.806;9.160;2022-09-06T14:18:56;6.00;;;5.50;;
1300;SDS011;59099;48.806;9.160;2022-09-06T14:21:22;5.10;;;4.70;;
1300;SDS011;59099;48.806;9.160;2022-09-06T14:23:50;8.17;;;4.93;;
1300;SDS011;59099;48.806;9.160;2022-09-06T14:26:17;6.40;;;5.90;;
1300;SDS011;59099;48.806;9.160;2022-09-06T14:28:46;6.07;;;5.57;;
1300;SDS011;59099;48.806;9.160;2022-09-06T14:31:14;7.87;;;5.80;;
1300;SDS011;59099;48.806;9.160;2022-09-06T14:33:48;6.10;;;5.50;;
1300;SDS011;59099;48.806;9.160;2022-09-06T14:36:14;7.10;;;5.90;;
1300;SDS011;59099;48.806;9.160;2022-09-06T14:38:42;6.77;;;6.17;;
1300;SDS011;59099;48.806;9.160;2022-09-06T14:41:10;7.07;;;6.10;;
1300;SDS011;59099;48.806;9.160;2022-09-06T14:43:38;7.90;;;6.03;;
1300;SDS011;59099;48.806;9.160;2022-09-06T14:46:11;6.87;;;6.07;;
1300;SDS011;59099;48.806;9.160;2022-09-06T14:48:39;8.90;;;6.23;;
1300;SDS011;59099;48.806;9.160;2022-09-06T14:51:10;6.43;;;5.70;;
1300;SDS011;59099;48.806;9.160;2022-09-06T14:53:41;7.40;;;5.47;;
1300;SDS011;59099;48.806;9.160;2022-09-06T14:56:08;6.73;;;5.30;;
1300;SDS011;59099;48.806;9.160;2022-09-06T14:58:35;5.87;;;5.33;;
1300;SDS011;59099;48.806;9.160;2022-09-06T15:03:36;7.17;;;6.57;;
1300;SDS011;59099;48.806;9.160;2022-09-06T15:06:02;6.43;;;5.40;;
1300;SDS011;59099;48.806;9.160;2022-09-06T15:08:28;9.53;;;7.10;;
1300;SDS011;59099;48.806;9.160;2022-09-06T15:10:54;9.03;;;5.93;;
1300;SDS011;59099;48.806;9.160;2022-09-06T15:13:20;6.23;;;5.60;;
1300;SDS011;59099;48.806;9.160;2022-09-06T15:15:46;9.27;;;5.17;;
1300;SDS011;59099;48.806;9.160;2022-09-06T15:18:13;9.70;;;5.40;;
1300;SDS011;59099;48.806;9.160;2022-09-06T15:20:39;5.83;;;4.90;;
1300;SDS011;59099;48.806;9.160;2022-09-06T15:23:06;5.40;;;4.90;;
1300;SDS011;59099;48.806;9.160;2022-09-06T15:25:57;5.37;;;4.70;;
1300;SDS011;59099;48.806;9.160;2022-09-06T15:28:23;5.30;;;4.30;;
1300;SDS011;59099;48.806;9.160;2022-09-06T15:30:49;5.93;;;5.00;;
1300;SDS011;59099;48.806;9.160;2022-09-06T15:33:15;4.70;;;4.20;;
1300;SDS011;59099;48.806;9.160;2022-09-06T15:35:41;4.37;;;4.07;;
1300;SDS011;59099;48.806;9.160;2022-09-06T15:38:07;4.30;;;4.00;;
1300;SDS011;59099;48.806;9.160;2022-09-06T15:40:34;3.87;;;3.50;;
1300;SDS011;59099;48.806;9.160;2022-09-06T15:43:00;3.60;;;3.17;;
1300;SDS011;59099;48.806;9.160;2022-09-06T15:45:27;3.30;;;3.10;;
1300;SDS011;59099;48.806;9.160;2022-09-06T15:47:53;5.43;;;3.87;;
1300;SDS011;59099;48.806;9.160;2022-09-06T15:50:19;6.00;;;3.83;;
1300;SDS011;59099;48.806;9.160;2022-09-06T15:52:46;7.80;;;4.67;;
1300;SDS011;59099;48.806;9.160;2022-09-06T15:55:11;5.90;;;4.70;;
1300;SDS011;59099;48.806;9.160;2022-09-06T15:57:56;4.03;;;3.73;;
1300;SDS011;59099;48.806;9.160;2022-09-06T16:00:21;4.93;;;4.47;;
1300;SDS011;59099;48.806;9.160;2022-09-06T16:02:48;5.83;;;4.63;;
1300;SDS011;59099;48.806;9.160;2022-09-06T16:05:14;5.33;;;4.40;;
1300;SDS011;59099;48.806;9.160;2022-09-06T16:07:41;4.63;;;4.13;;
1300;SDS011;59099;48.806;9.160;2022-09-06T16:10:09;4.73;;;4.33;;
1300;SDS011;59099;48.806;9.160;2022-09-06T16:12:37;7.67;;;4.40;;
1300;SDS011;59099;48.806;9.160;2022-09-06T16:15:03;4.00;;;3.70;;
1300;SDS011;59099;48.806;9.160;2022-09-06T16:17:29;5.00;;;3.93;;
1300;SDS011;59099;48.806;9.160;2022-09-06T16:19:55;4.13;;;3.73;;
1300;SDS011;59099;48.806;9.160;2022-09-06T16:22:23;4.70;;;3.83;;
1300;SDS011;59099;48.806;9.160;2022-09-06T16:24:49;4.47;;;4.07;;
1300;SDS011;59099;48.806;9.160;2022-09-06T16:27:15;6.13;;;4.20;;
1300;SDS011;59099;48.806;9.160;2022-09-06T16:29:41;4.97;;;4.43;;
1300;SDS011;59099;48.806;9.160;2022-09-06T16:32:07;4.43;;;3.50;;
1300;SDS011;59099;48.806;9.160;2022-09-06T16:34:34;4.30;;;4.00;;
1300;SDS011;59099;48.806;9.160;2022-09-06T16:37:02;4.93;;;4.50;;
1300;SDS011;59099;48.806;9.160;2022-09-06T16:39:32;4.40;;;4.00;;
1300;SDS011;59099;48.806;9.160;2022-09-06T16:42:01;6.83;;;4.10;;
1300;SDS011;59099;48.806;9.160;2022-09-06T16:44:27;5.20;;;3.90;;
1300;SDS011;59099;48.806;9.160;2022-09-06T16:46:53;5.53;;;4.20;;
1300;SDS011;59099;48.806;9.160;2022-09-06T16:49:21;5.60;;;4.13;;
1300;SDS011;59099;48.806;9.160;2022-09-06T16:51:48;4.17;;;3.77;;
1300;SDS011;59099;48.806;9.160;2022-09-06T16:54:14;4.87;;;4.40;;
1300;SDS011;59099;48.806;9.160;2022-09-06T16:56:40;5.03;;;3.90;;
1300;SDS011;59099;48.806;9.160;2022-09-06T16:59:07;6.30;;;4.90;;
1300;SDS011;59099;48.806;9.160;2022-09-06T17:01:35;4.13;;;3.77;;
1300;SDS011;59099;48.806;9.160;2022-09-06T17:04:02;4.67;;;4.27;;
1300;SDS011;59099;48.806;9.160;2022-09-06T17:06:29;4.30;;;3.90;;
1300;SDS011;59099;48.806;9.160;2022-09-06T17:09:21;5.07;;;4.03;;
1300;SDS011;59099;48.806;9.160;2022-09-06T17:11:52;7.07;;;5.23;;
1300;SDS011;59099;48.806;9.160;2022-09-06T17:14:22;5.93;;;4.40;;
1300;SDS011;59099;48.806;9.160;2022-09-06T17:16:52;5.33;;;4.50;;
1300;SDS011;59099;48.806;9.160;2022-09-06T17:19:48;7.80;;;5.33;;
1300;SDS011;59099;48.806;9.160;2022-09-06T17:22:14;5.67;;;5.13;;
1300;SDS011;59099;48.806;9.160;2022-09-06T17:24:39;4.70;;;4.30;;